Trimble, Missouri
Current Conditions -  °F | °C
As of 1:53 AM on Saturday 20 Dec 2014 (Local Time) from KMCI Reporting Station
Haze Haze  
Wind Chill: 26°   Ceiling: 1100
Heat Index: 32°   Visibility: 5mi
Dew Point: 31°   Wind: 7mph
Humidity: 96%   Direction: 200°SSW
Pressure: 30.18"   Gusts: NA
Location:  39.47°N, 94.56°W
Report Text: KMCI 200753Z 20006KT 5SM BR BKN011 OVC017 00/M01 A3018 RMK AO2 FZRAE03FZDZB03E09 SLP227 P0000 I1000 T00001006 $
Loading
Personal Weather Stations






























Interactive Weather Map New forecast layout! Learn more

10-Day Weather Forecast

Advertisements
Track Severe Weather on mobile